createdAt,value
2022-09-14T00:01:08.154Z,74.85
2022-09-14T00:01:50.722Z,74.74
2022-09-14T00:02:50.871Z,74.55
2022-09-14T00:03:50.800Z,74.35
2022-09-14T00:04:50.745Z,74.15
2022-09-14T00:05:50.862Z,74.04
2022-09-14T00:06:50.925Z,73.71
2022-09-14T04:38:00.988Z,75.05
2022-09-14T04:39:01.787Z,74.95
2022-09-14T04:40:02.142Z,75.05
2022-09-14T04:41:01.883Z,75.05
2022-09-14T04:42:01.970Z,75.02
2022-09-14T04:43:02.124Z,74.92
2022-09-14T04:44:02.147Z,74.92
2022-09-14T04:45:02.270Z,74.92
2022-09-14T04:46:02.392Z,74.82
2022-09-14T04:47:02.443Z,74.68
2022-09-14T04:48:02.470Z,74.68
2022-09-14T04:49:02.565Z,74.68
2022-09-14T04:50:02.644Z,74.58
2022-09-14T04:51:02.700Z,74.58
2022-09-14T04:52:02.783Z,74.48
2022-09-14T04:53:02.887Z,74.44
2022-09-14T04:54:02.953Z,74.44
2022-09-14T04:55:03.103Z,74.44
2022-09-14T04:56:03.105Z,74.35
2022-09-14T04:57:03.184Z,74.35
2022-09-14T04:58:03.273Z,74.35
2022-09-14T04:59:03.364Z,74.24
2022-09-14T05:00:03.477Z,74.15
2022-09-14T05:01:03.525Z,74.04
2022-09-14T05:02:03.678Z,74.04
2022-09-14T05:03:03.790Z,74.15
2022-09-14T05:04:03.775Z,74.01
2022-09-14T05:05:03.897Z,73.91
2022-09-14T05:06:03.939Z,73.91
2022-09-14T05:07:04.039Z,73.91
2022-09-14T05:08:04.117Z,73.91
2022-09-14T05:09:04.211Z,73.91
2022-09-14T05:10:04.318Z,73.91
2022-09-14T05:11:04.394Z,73.81
2022-09-14T05:12:04.479Z,73.91
2022-09-14T05:13:04.577Z,73.91
2022-09-14T05:14:04.625Z,74.01
2022-09-14T05:15:04.725Z,74.01
2022-09-14T05:16:04.958Z,74.01
2022-09-14T05:17:04.862Z,73.97
2022-09-14T05:18:04.944Z,73.97
2022-09-14T05:19:05.056Z,73.97
2022-09-14T05:20:05.147Z,73.87
2022-09-14T05:21:08.447Z,73.77
2022-09-14T05:22:05.299Z,73.77
2022-09-14T05:23:05.352Z,73.77
2022-09-14T05:24:05.446Z,73.77
2022-09-14T05:25:05.566Z,73.74
2022-09-14T05:26:05.599Z,73.84
2022-09-14T05:27:05.687Z,73.94
2022-09-14T05:28:05.819Z,74.04
2022-09-14T05:29:05.851Z,74.04
2022-09-14T05:30:05.943Z,73.84
2022-09-14T05:31:06.041Z,73.74
2022-09-14T05:32:06.056Z,73.54
2022-09-14T06:05:33.510Z,76.62
2022-09-14T06:06:33.799Z,76.72
2022-09-14T06:15:12.038Z,77.52
2022-09-14T06:16:13.801Z,77.52
2022-09-14T06:17:14.124Z,77.52
2022-09-14T06:18:13.165Z,77.52
2022-09-14T06:19:13.274Z,77.42
2022-09-14T06:20:13.325Z,77.32
2022-09-14T06:21:13.403Z,77.19
2022-09-14T06:22:13.474Z,77.09
2022-09-14T06:23:13.558Z,77.09
2022-09-14T06:24:13.662Z,76.98
2022-09-14T06:25:13.706Z,76.89
2022-09-14T06:26:13.803Z,76.78
2022-09-14T06:27:13.876Z,76.65
2022-09-14T06:28:13.952Z,76.54
2022-09-14T06:29:14.076Z,76.45
2022-09-14T06:30:14.117Z,76.15
2022-09-14T06:31:14.223Z,75.84
2022-09-14T06:32:14.312Z,75.64
2022-09-14T06:33:14.398Z,75.45
2022-09-14T06:34:14.528Z,75.34
2022-09-14T06:35:14.581Z,75.34
2022-09-14T06:36:14.659Z,75.31
2022-09-14T06:37:14.731Z,75.21
2022-09-14T06:38:14.835Z,75.21
2022-09-14T06:39:14.901Z,75.21
2022-09-14T06:40:15.026Z,75.21
2022-09-14T06:41:15.164Z,75.10
2022-09-14T06:42:15.116Z,75.01
2022-09-14T06:43:15.189Z,75.21
2022-09-14T06:54:13.432Z,75.64
2022-09-14T06:55:14.457Z,75.74
2022-09-14T06:56:14.536Z,75.54
2022-09-14T06:57:14.614Z,75.54
2022-09-14T06:58:14.675Z,75.45
2022-09-14T06:59:14.759Z,75.31
2022-09-14T07:00:14.834Z,75.31
2022-09-14T07:01:14.953Z,75.31
2022-09-14T07:02:15.064Z,75.21
2022-09-14T07:03:15.188Z,75.01
2022-09-14T07:04:15.214Z,74.90
2022-09-14T07:05:15.257Z,74.90
2022-09-14T07:06:15.456Z,74.87
2022-09-14T07:12:30.938Z,74.90
2022-09-14T07:13:32.031Z,74.90
2022-09-14T07:19:28.890Z,75.21
2022-09-14T07:24:51.504Z,74.80
2022-09-14T07:25:47.311Z,74.71
2022-09-14T07:26:46.519Z,74.60
2022-09-14T07:32:37.168Z,74.47
2022-09-14T07:33:37.658Z,74.07
2022-09-14T07:34:37.487Z,73.97
2022-09-14T07:35:37.577Z,73.97
2022-09-14T07:36:37.693Z,74.17
2022-09-14T07:37:37.743Z,74.13
2022-09-14T07:38:53.652Z,74.03
2022-09-14T07:39:37.913Z,74.13
2022-09-14T07:40:47.248Z,74.23
2022-09-14T07:41:40.127Z,74.43
2022-09-14T07:42:38.322Z,74.54
2022-09-14T08:23:21.581Z,73.63
2022-09-14T08:24:22.634Z,73.53
2022-09-14T08:25:22.672Z,73.63
2022-09-14T08:26:22.769Z,73.73
2022-09-14T08:27:22.818Z,73.60
2022-09-14T08:28:22.925Z,73.50
2022-09-14T08:29:22.985Z,73.50
2022-09-14T08:30:23.064Z,73.50
2022-09-14T08:31:23.201Z,73.46
2022-09-14T08:32:23.255Z,71.76
2022-09-14T08:33:23.326Z,69.36
2022-09-14T08:34:23.352Z,69.06
2022-09-14T08:35:40.763Z,68.62
2022-09-14T08:36:23.520Z,67.32
2022-09-14T08:37:23.611Z,66.49
2022-09-14T08:38:23.776Z,66.19
2022-09-14T08:39:23.773Z,65.89
2022-09-14T08:40:23.928Z,65.66
2022-09-14T08:41:23.923Z,65.66
2022-09-14T08:42:24.015Z,64.93
2022-09-14T08:43:24.098Z,64.33
2022-09-14T08:44:24.193Z,63.93
2022-09-14T08:45:24.332Z,63.80
2022-09-14T08:46:24.371Z,63.30
2022-09-14T08:47:24.485Z,63.60
2022-09-14T08:48:24.613Z,62.67
2022-09-14T08:49:24.674Z,62.67
2022-09-14T08:50:24.730Z,61.57
2022-09-14T08:51:24.800Z,61.47
2022-09-14T08:52:24.908Z,59.95
2022-09-14T08:53:24.958Z,60.45
2022-09-14T08:54:25.041Z,60.65
2022-09-14T08:55:25.119Z,61.15
2022-09-14T08:56:25.181Z,61.32
2022-09-14T08:57:25.306Z,61.22
2022-09-14T08:58:25.338Z,61.41
2022-09-14T08:59:25.413Z,60.42
2022-09-14T09:00:25.511Z,60.22
2022-09-14T09:01:25.656Z,60.42
2022-09-14T09:02:25.706Z,60.59
2022-09-14T09:03:25.829Z,60.39
2022-09-14T09:04:25.820Z,60.59
2022-09-14T09:06:31.967Z,64.97
2022-09-14T09:07:33.120Z,65.61
2022-09-14T09:08:33.111Z,66.90
2022-09-14T09:09:33.221Z,67.00
2022-09-14T09:10:33.234Z,67.70
2022-09-14T09:11:33.307Z,67.43
2022-09-14T09:12:33.418Z,68.13
2022-09-14T09:13:33.466Z,68.23
2022-09-14T09:16:40.943Z,68.86
2022-09-14T09:20:05.423Z,68.52
2022-09-14T09:21:07.076Z,69.23
2022-09-14T09:22:06.497Z,68.33
2022-09-14T09:23:06.577Z,68.63
2022-09-14T09:24:06.684Z,69.13
2022-09-14T09:25:06.879Z,68.03
2022-09-14T09:26:06.798Z,68.03
2022-09-14T09:27:06.871Z,68.33
2022-09-14T09:28:06.956Z,68.33
2022-09-14T09:29:07.072Z,69.13
2022-09-14T09:30:07.119Z,68.33
2022-09-14T09:31:11.497Z,68.82
2022-09-14T09:32:07.373Z,69.23
2022-09-14T09:33:07.342Z,69.02
2022-09-14T09:34:08.095Z,69.43
2022-09-14T09:35:07.503Z,69.73
2022-09-14T09:36:07.578Z,70.23
2022-09-14T09:37:07.657Z,70.42
2022-09-14T09:38:07.735Z,70.62
2022-09-14T09:39:07.837Z,71.03
2022-09-14T09:40:07.955Z,70.92
2022-09-14T09:41:08.002Z,70.42
2022-09-14T09:42:08.090Z,70.62
2022-09-14T09:43:08.173Z,70.83
2022-09-14T09:44:08.384Z,71.12
2022-09-14T09:45:08.338Z,71.72
2022-09-14T09:46:08.527Z,72.22
2022-09-14T09:47:08.628Z,72.32
2022-09-14T09:48:08.681Z,72.45
2022-09-14T09:49:08.731Z,71.76
2022-09-14T09:50:08.843Z,71.56
2022-09-14T09:51:08.893Z,71.96
2022-09-14T09:52:08.963Z,71.76
2022-09-14T09:53:09.057Z,72.36
2022-09-14T09:54:09.155Z,71.86
2022-09-14T09:55:09.191Z,72.06
2022-09-14T09:56:09.283Z,72.66
2022-09-14T09:57:09.325Z,73.36
2022-09-14T09:58:09.416Z,73.25
2022-09-14T09:59:09.508Z,73.32
2022-09-14T10:00:09.771Z,73.22
2022-09-14T10:01:12.407Z,72.82
2022-09-14T10:02:09.826Z,73.42
2022-09-14T10:03:09.844Z,73.12
2022-09-14T10:04:09.941Z,72.92
2022-09-14T10:05:09.996Z,72.92
2022-09-14T10:06:10.096Z,72.13
2022-09-14T10:07:10.132Z,72.13
2022-09-14T10:08:11.701Z,72.42
2022-09-14T10:09:10.576Z,72.29
2022-09-14T10:10:09.351Z,71.99
2022-09-14T10:11:10.810Z,71.49
2022-09-14T10:12:10.569Z,70.89
2022-09-14T10:26:48.887Z,69.62
2022-09-14T10:27:49.964Z,69.53
2022-09-14T10:28:50.057Z,70.09
2022-09-14T10:29:50.161Z,70.09
2022-09-14T10:30:50.195Z,70.09
2022-09-14T10:31:50.232Z,70.49
2022-09-14T10:32:50.326Z,70.36
2022-09-14T10:33:50.461Z,70.26
2022-09-14T10:34:51.171Z,70.06
2022-09-14T10:35:59.317Z,69.46
2022-09-14T10:36:50.659Z,69.26
2022-09-14T10:37:50.814Z,69.36
2022-09-14T10:38:50.846Z,68.56
2022-09-14T10:43:59.657Z,68.16
2022-09-14T10:45:10.398Z,68.33
2022-09-14T10:47:57.276Z,68.13
2022-09-14T10:52:55.193Z,68.03
2022-09-14T10:53:49.941Z,68.23
2022-09-14T10:56:18.765Z,67.23
2022-09-14T10:58:44.931Z,67.13
2022-09-14T11:06:44.435Z,67.23
2022-09-14T11:07:45.386Z,67.73
2022-09-14T11:10:18.867Z,67.70
2022-09-14T11:18:01.058Z,66.20
2022-09-14T11:53:12.289Z,68.63
2022-09-14T12:25:15.942Z,69.69
2022-09-14T12:47:34.881Z,69.99
2022-09-14T12:48:35.906Z,69.99
2022-09-14T12:49:35.858Z,69.99
2022-09-14T12:50:35.951Z,70.09
2022-09-14T12:51:36.055Z,70.06
2022-09-14T13:24:02.934Z,70.76
2022-09-14T13:55:18.048Z,69.89
2022-09-14T14:21:06.808Z,68.13
2022-09-14T14:23:02.182Z,68.23
2022-09-14T14:36:38.741Z,71.89
2022-09-14T14:37:39.755Z,72.09
2022-09-14T14:38:39.848Z,72.39
2022-09-14T14:39:40.075Z,72.50
2022-09-14T14:40:39.987Z,72.30
2022-09-14T14:41:40.053Z,72.36
2022-09-14T14:42:40.059Z,71.96
2022-09-14T15:03:50.144Z,71.59
2022-09-14T15:18:12.814Z,71.19
2022-09-14T16:03:20.649Z,71.00
2022-09-14T16:04:21.570Z,70.89
2022-09-14T16:05:21.659Z,71.00
2022-09-14T16:06:21.696Z,70.96
2022-09-14T16:07:21.777Z,70.86
2022-09-14T16:08:21.917Z,70.66
2022-09-14T16:09:21.940Z,70.46
2022-09-14T16:10:22.043Z,70.12
2022-09-14T16:11:22.129Z,70.12
2022-09-14T16:12:22.291Z,70.23
2022-09-14T16:13:22.331Z,70.03
2022-09-14T16:14:22.438Z,69.93
2022-09-14T16:15:23.228Z,69.93
2022-09-14T16:16:22.636Z,69.93
2022-09-14T16:17:22.588Z,69.93
2022-09-14T16:18:33.004Z,69.69
2022-09-14T16:19:22.797Z,69.69
2022-09-14T16:20:22.911Z,69.79
2022-09-14T16:21:23.023Z,69.89
2022-09-14T16:22:31.794Z,69.89
2022-09-14T16:23:23.084Z,69.99
2022-09-14T16:24:23.330Z,69.99
2022-09-14T16:25:23.750Z,70.09
2022-09-14T16:28:54.842Z,70.23
2022-09-14T16:29:55.676Z,70.43
2022-09-14T16:30:55.711Z,70.73
2022-09-14T16:31:55.927Z,70.92
2022-09-14T16:32:55.912Z,71.23
2022-09-14T16:33:55.900Z,71.39
2022-09-14T16:34:56.008Z,71.39
2022-09-14T16:35:56.115Z,71.49
2022-09-14T16:36:56.129Z,71.49
2022-09-14T16:37:56.275Z,71.59
2022-09-14T16:38:56.283Z,71.59
2022-09-14T16:39:56.519Z,71.59
2022-09-14T16:40:56.557Z,71.59
2022-09-14T16:41:56.582Z,71.59
2022-09-14T16:42:56.606Z,71.69
2022-09-14T16:43:56.697Z,71.79
2022-09-14T16:44:56.808Z,71.89
2022-09-14T16:45:56.917Z,71.89
2022-09-14T16:47:09.096Z,71.89
2022-09-14T16:47:57.028Z,71.89
2022-09-14T16:48:57.382Z,71.99
2022-09-14T16:49:57.954Z,71.99
2022-09-14T16:50:57.319Z,71.99
2022-09-14T16:51:57.386Z,71.99
2022-09-14T16:52:57.564Z,71.99
2022-09-14T16:53:58.174Z,71.99
2022-09-14T16:54:57.586Z,71.89
2022-09-14T16:55:57.700Z,71.89
2022-09-14T16:56:57.750Z,71.89
2022-09-14T16:57:57.858Z,71.79
2022-09-14T16:58:58.002Z,71.59
2022-09-14T16:59:58.091Z,71.59
2022-09-14T17:18:59.084Z,73.63
2022-09-14T17:20:00.123Z,73.73
2022-09-14T17:21:00.472Z,73.83
2022-09-14T17:22:00.281Z,73.93
2022-09-14T17:23:00.542Z,74.03
2022-09-14T17:24:00.483Z,74.23
2022-09-14T17:25:00.512Z,74.03
2022-09-14T17:26:00.577Z,74.23
2022-09-14T17:27:00.670Z,74.33
2022-09-14T17:28:00.746Z,74.23
2022-09-14T17:29:00.848Z,74.23
2022-09-14T17:30:00.897Z,74.23
2022-09-14T17:31:00.986Z,74.43
2022-09-14T17:32:01.150Z,74.43
2022-09-14T17:33:01.138Z,74.54
2022-09-14T17:34:01.212Z,74.54
2022-09-14T17:35:01.320Z,74.63
2022-09-14T17:36:01.358Z,74.63
2022-09-14T17:37:01.456Z,74.73
2022-09-14T17:38:01.560Z,74.63
2022-09-14T17:39:01.606Z,74.70
2022-09-14T17:40:01.855Z,74.80
2022-09-14T17:41:01.764Z,74.90
2022-09-14T17:42:01.875Z,74.80
2022-09-14T17:43:01.971Z,74.80
2022-09-14T17:44:02.048Z,74.80
2022-09-14T17:45:02.125Z,74.80
2022-09-14T17:46:02.204Z,74.90
2022-09-14T17:47:02.363Z,75.10
2022-09-14T17:48:02.348Z,75.00
2022-09-14T17:49:02.475Z,75.00
2022-09-14T17:50:02.546Z,75.10
2022-09-14T17:51:02.608Z,75.10
2022-09-14T17:52:02.679Z,75.10
2022-09-14T17:53:02.706Z,75.00
2022-09-14T17:54:02.805Z,75.04
2022-09-14T17:55:02.923Z,75.04
2022-09-14T17:56:02.971Z,75.13
2022-09-14T17:57:03.059Z,75.23
2022-09-14T17:58:03.108Z,75.13
2022-09-14T17:59:03.192Z,75.13
2022-09-14T18:00:03.275Z,75.13
2022-09-14T18:01:03.428Z,75.13
2022-09-14T18:02:03.470Z,75.23
2022-09-14T18:03:03.497Z,75.34
2022-09-14T18:04:03.647Z,75.43
2022-09-14T18:05:03.670Z,75.43
2022-09-14T18:06:03.746Z,75.43
2022-09-14T18:07:03.889Z,75.54
2022-09-14T18:08:03.933Z,75.54
2022-09-14T18:09:04.005Z,75.43
2022-09-14T18:10:04.108Z,75.43
2022-09-14T18:11:04.181Z,75.54
2022-09-14T18:12:04.287Z,75.54
2022-09-14T18:13:04.333Z,75.63
2022-09-14T18:14:04.430Z,75.67
2022-09-14T18:15:04.497Z,75.67
2022-09-14T18:16:04.650Z,75.77
2022-09-14T18:17:04.672Z,75.87
2022-09-14T18:18:04.743Z,75.87
2022-09-14T18:19:04.819Z,76.07
2022-09-14T18:20:04.911Z,76.07
2022-09-14T18:21:05.007Z,76.17
2022-09-14T18:22:05.089Z,76.28
2022-09-14T18:23:05.168Z,76.17
2022-09-14T18:24:05.249Z,76.37
2022-09-14T18:25:05.324Z,76.37
2022-09-14T18:26:05.410Z,76.28
2022-09-14T18:27:05.521Z,76.31
2022-09-14T18:28:05.555Z,76.31
2022-09-14T18:29:05.625Z,76.31
2022-09-14T18:30:05.709Z,76.31
2022-09-14T18:31:05.874Z,76.41
2022-09-14T18:32:05.887Z,76.31
2022-09-14T18:33:05.928Z,76.37
2022-09-14T18:34:06.005Z,76.28
2022-09-14T18:35:06.076Z,76.17
2022-09-14T18:36:06.156Z,76.17
2022-09-14T18:37:06.270Z,76.17
2022-09-14T18:38:06.315Z,76.07
2022-09-14T18:39:06.381Z,76.07
2022-09-14T18:40:06.532Z,76.07
2022-09-14T18:41:06.534Z,75.97
2022-09-14T18:42:06.629Z,75.97
2022-09-14T18:43:06.675Z,75.97
2022-09-14T18:44:06.756Z,76.01
2022-09-14T18:45:06.832Z,76.07
2022-09-14T18:46:06.941Z,76.11
2022-09-14T18:47:07.086Z,76.11
2022-09-14T18:48:07.098Z,76.11
2022-09-14T18:49:07.132Z,76.21
2022-09-14T18:50:07.213Z,76.21
2022-09-14T18:51:07.287Z,76.31
2022-09-14T18:52:07.375Z,76.31
2022-09-14T18:53:07.472Z,76.41
2022-09-14T18:54:07.563Z,76.41
2022-09-14T18:55:07.626Z,76.31
2022-09-14T18:56:07.711Z,76.41
2022-09-14T18:57:07.809Z,76.51
2022-09-14T18:58:07.917Z,76.41
2022-09-14T18:59:07.962Z,76.51
2022-09-14T19:00:08.021Z,76.61
2022-09-14T19:01:08.173Z,76.54
2022-09-14T19:02:08.365Z,76.54
2022-09-14T19:03:08.291Z,76.54
2022-09-14T19:04:08.344Z,76.54
2022-09-14T19:05:08.441Z,76.54
2022-09-14T19:06:08.519Z,76.65
2022-09-14T19:07:08.652Z,76.65
2022-09-14T19:08:08.671Z,76.65
2022-09-14T19:09:08.816Z,76.65
2022-09-14T19:10:11.600Z,76.65
2022-09-14T19:11:08.934Z,76.75
2022-09-14T19:12:09.035Z,76.65
2022-09-14T19:13:09.106Z,76.85
2022-09-14T19:14:09.132Z,76.85
2022-09-14T19:15:09.212Z,76.85
2022-09-14T19:16:09.393Z,77.05
2022-09-14T19:17:09.397Z,77.15
2022-09-14T19:18:09.477Z,77.05
2022-09-14T19:19:09.552Z,77.05
2022-09-14T19:20:09.629Z,77.05
2022-09-14T19:21:09.740Z,76.95
2022-09-14T19:22:09.830Z,76.85
2022-09-14T19:23:09.906Z,76.85
2022-09-14T19:24:09.985Z,76.75
2022-09-14T19:25:10.065Z,76.75
2022-09-14T19:26:10.143Z,76.75
2022-09-14T19:27:10.233Z,76.85
2022-09-14T19:28:10.316Z,76.95
2022-09-14T19:29:10.388Z,76.85
2022-09-14T19:30:10.491Z,76.85
2022-09-14T19:31:10.567Z,76.75
2022-09-14T19:32:10.660Z,76.75
2022-09-14T19:33:10.720Z,76.54
2022-09-14T19:34:10.788Z,76.54
2022-09-14T19:35:10.864Z,76.45
2022-09-14T19:36:10.937Z,76.45
2022-09-14T19:37:11.037Z,76.45
2022-09-14T19:38:11.147Z,76.45
2022-09-14T19:39:11.186Z,76.45
2022-09-14T19:40:11.318Z,76.45
2022-09-14T19:41:11.358Z,76.45
2022-09-14T19:42:11.471Z,76.34
2022-09-14T19:43:11.581Z,76.34
2022-09-14T19:44:11.637Z,76.15
2022-09-14T19:45:11.712Z,76.15
2022-09-14T19:46:11.834Z,76.15
2022-09-14T19:47:11.922Z,76.15
2022-09-14T19:48:11.957Z,76.04
2022-09-14T19:49:12.031Z,76.04
2022-09-14T19:50:12.126Z,76.04
2022-09-14T19:51:12.203Z,76.15
2022-09-14T19:52:12.299Z,76.04
2022-09-14T19:53:12.373Z,76.18
2022-09-14T19:54:12.470Z,76.18
2022-09-14T19:55:12.708Z,76.28
2022-09-14T19:56:12.633Z,76.28
2022-09-14T19:57:12.733Z,76.28
2022-09-14T19:58:12.765Z,76.38
2022-09-14T19:59:12.861Z,76.38
2022-09-14T20:00:17.528Z,76.38
2022-09-14T20:01:13.078Z,76.48
2022-09-14T20:02:13.262Z,76.48
2022-09-14T20:03:13.287Z,76.68
2022-09-14T20:04:13.287Z,76.58
2022-09-14T20:05:13.331Z,76.78
2022-09-14T20:06:13.404Z,76.78
2022-09-14T20:07:13.526Z,76.89
2022-09-14T20:08:13.556Z,76.89
2022-09-14T20:09:13.635Z,76.78
2022-09-14T20:10:13.716Z,76.89
2022-09-14T20:11:16.629Z,76.98
2022-09-14T20:12:13.906Z,76.89
2022-09-14T20:13:13.991Z,76.89
2022-09-14T20:14:14.066Z,76.89
2022-09-14T20:15:14.176Z,77.09
2022-09-14T20:16:14.312Z,77.19
2022-09-14T20:17:14.358Z,77.28
2022-09-14T20:18:14.441Z,77.28
2022-09-14T20:19:14.511Z,77.28
2022-09-14T20:20:14.581Z,77.48
2022-09-14T20:21:14.669Z,77.48
2022-09-14T20:22:16.841Z,77.59
2022-09-14T20:23:14.797Z,77.69
2022-09-14T20:24:16.722Z,77.79
2022-09-14T20:25:14.971Z,77.99
2022-09-14T20:26:15.046Z,77.99
2022-09-14T20:27:15.158Z,78.19
2022-09-14T20:28:15.203Z,78.29
2022-09-14T20:29:15.316Z,78.29
2022-09-14T20:30:15.331Z,78.19
2022-09-14T20:31:15.452Z,78.19
2022-09-14T20:32:19.626Z,78.19
2022-09-14T20:33:15.618Z,78.19
2022-09-14T20:34:15.719Z,78.09
2022-09-14T20:35:15.811Z,78.09
2022-09-14T20:36:15.897Z,78.19
2022-09-14T20:37:15.990Z,78.49
2022-09-14T20:38:16.065Z,78.29
2022-09-14T20:39:16.140Z,78.19
2022-09-14T20:40:16.265Z,78.29
2022-09-14T20:41:16.295Z,78.42
2022-09-14T20:42:16.399Z,78.42
2022-09-14T20:43:16.445Z,78.42
2022-09-14T20:44:16.523Z,78.42
2022-09-14T20:45:16.605Z,78.53
2022-09-14T20:46:16.715Z,78.63
2022-09-14T20:47:16.808Z,78.63
2022-09-14T20:48:16.832Z,78.53
2022-09-14T20:49:16.913Z,78.42
2022-09-14T20:50:16.978Z,78.12
2022-09-14T20:51:20.593Z,78.12
2022-09-14T20:52:17.165Z,78.03
2022-09-14T20:53:17.192Z,77.92
2022-09-14T20:54:17.286Z,78.03
2022-09-14T20:55:17.358Z,78.12
2022-09-14T20:56:17.453Z,78.22
2022-09-14T20:57:17.546Z,78.33
2022-09-14T20:58:17.621Z,78.33
2022-09-14T20:59:17.704Z,78.42
2022-09-14T21:00:17.771Z,78.33
2022-09-14T21:01:17.925Z,78.33
2022-09-14T21:02:18.067Z,78.33
2022-09-14T21:03:17.996Z,78.33
2022-09-14T21:04:18.068Z,78.33
2022-09-14T21:05:18.145Z,78.33
2022-09-14T21:06:18.217Z,78.22
2022-09-14T21:07:18.333Z,78.22
2022-09-14T21:08:18.366Z,78.22
2022-09-14T21:09:18.440Z,78.22
2022-09-14T21:10:18.493Z,78.22
2022-09-14T21:11:18.563Z,78.12
2022-09-14T21:12:18.658Z,78.12
2022-09-14T21:13:18.749Z,78.03
2022-09-14T21:14:18.850Z,77.92
2022-09-14T21:15:18.916Z,77.92
2022-09-14T21:16:19.104Z,77.79
2022-09-14T21:17:19.116Z,77.69
2022-09-14T21:18:20.825Z,77.69
2022-09-14T21:19:19.242Z,77.59
2022-09-14T21:20:19.317Z,77.69
2022-09-14T21:21:19.398Z,77.59
2022-09-14T21:22:19.560Z,77.59
2022-09-14T21:23:19.555Z,77.59
2022-09-14T21:24:19.641Z,77.59
2022-09-14T21:25:19.711Z,77.59
2022-09-14T21:26:19.780Z,77.59
2022-09-14T21:27:19.953Z,77.59
2022-09-14T21:28:19.941Z,77.59
2022-09-14T21:29:20.015Z,77.48
2022-09-14T21:30:20.087Z,77.48
2022-09-14T21:31:20.318Z,77.39
2022-09-14T21:32:20.265Z,77.39
2022-09-14T21:33:20.347Z,77.39
2022-09-14T21:34:20.420Z,77.28
2022-09-14T21:35:20.524Z,77.28
2022-09-14T21:36:20.560Z,77.39
2022-09-14T21:37:20.649Z,77.39
2022-09-14T21:38:20.739Z,77.39
2022-09-14T21:39:20.814Z,77.52
2022-09-14T21:40:20.952Z,77.69
2022-09-14T21:41:20.977Z,77.83
2022-09-14T21:42:21.111Z,77.92
2022-09-14T21:43:21.162Z,78.12
2022-09-14T21:44:21.234Z,78.22
2022-09-14T21:45:21.317Z,78.33
2022-09-14T21:46:21.493Z,78.42
2022-09-14T21:47:21.547Z,78.63
2022-09-14T21:48:21.560Z,78.77
2022-09-14T21:49:21.663Z,78.86
2022-09-14T21:50:21.738Z,78.86
2022-09-14T21:51:21.812Z,78.97
2022-09-14T21:52:21.933Z,78.97
2022-09-14T21:53:21.969Z,79.06
2022-09-14T21:54:22.046Z,79.06
2022-09-14T21:55:22.149Z,79.06
2022-09-14T21:56:22.176Z,79.06
2022-09-14T21:57:22.302Z,79.06
2022-09-14T21:58:22.351Z,78.86
2022-09-14T21:59:22.443Z,78.66
2022-09-14T22:00:22.513Z,78.77
2022-09-14T22:01:22.676Z,78.77
2022-09-14T22:02:22.827Z,78.77
2022-09-14T22:03:22.752Z,78.86
2022-09-14T22:04:22.856Z,78.86
2022-09-14T22:05:22.929Z,78.77
2022-09-14T22:06:23.006Z,78.77
2022-09-14T22:07:23.149Z,78.77
2022-09-14T22:08:23.187Z,78.77
2022-09-14T22:09:23.253Z,78.66
2022-09-14T22:10:23.337Z,78.66
2022-09-14T22:11:23.601Z,78.86
2022-09-14T22:12:23.516Z,78.86
2022-09-14T22:13:23.599Z,78.77
2022-09-14T22:14:23.673Z,78.77
2022-09-14T22:15:23.771Z,78.86
2022-09-14T22:16:23.921Z,78.86
2022-09-14T22:17:23.958Z,78.86
2022-09-14T22:18:24.024Z,78.77
2022-09-14T22:19:24.096Z,78.86
2022-09-14T22:20:24.172Z,78.86
2022-09-14T22:21:24.247Z,78.86
2022-09-14T22:22:24.331Z,78.77
2022-09-14T22:23:24.426Z,78.77
2022-09-14T22:24:24.494Z,78.77
2022-09-14T22:25:24.576Z,78.66
2022-09-14T22:26:24.646Z,78.66
2022-09-14T22:27:24.736Z,78.66
2022-09-14T22:28:24.836Z,78.66
2022-09-14T22:29:24.927Z,78.66
2022-09-14T22:30:25.054Z,78.27
2022-09-14T22:31:25.080Z,77.96
2022-09-14T22:32:25.162Z,77.96
2022-09-14T22:33:25.251Z,78.06
2022-09-14T22:34:25.321Z,77.86
2022-09-14T22:35:25.416Z,77.96
2022-09-14T22:36:25.492Z,77.96
2022-09-14T22:37:25.595Z,78.16
2022-09-14T22:38:25.624Z,78.27
2022-09-14T22:39:25.695Z,78.36
2022-09-14T22:40:25.812Z,78.46
2022-09-14T22:41:25.831Z,78.56
2022-09-14T22:42:25.935Z,78.56
2022-09-14T22:43:25.970Z,78.66
2022-09-14T22:44:26.035Z,78.77
2022-09-14T22:45:26.139Z,78.66
2022-09-14T22:46:26.263Z,78.56
2022-09-14T22:47:26.276Z,78.66
2022-09-14T22:48:26.367Z,78.66
2022-09-14T22:49:26.434Z,78.77
2022-09-14T22:50:26.511Z,78.06
2022-09-14T22:51:26.599Z,77.86
2022-09-14T22:52:26.669Z,77.96
2022-09-14T22:53:26.726Z,77.46
2022-09-14T22:54:26.810Z,77.50
2022-09-14T22:55:26.886Z,77.70
2022-09-14T22:56:26.967Z,77.59
2022-09-14T22:57:27.056Z,77.59
2022-09-14T22:58:27.121Z,77.70
2022-09-14T22:59:27.212Z,77.70
2022-09-14T23:00:27.288Z,77.70
2022-09-14T23:01:27.492Z,77.80
2022-09-14T23:02:27.572Z,77.70
2022-09-14T23:03:27.524Z,77.80
2022-09-14T23:04:27.631Z,77.80
2022-09-14T23:05:27.655Z,77.90
2022-09-14T23:06:27.725Z,77.90
2022-09-14T23:07:27.845Z,77.86
2022-09-14T23:08:27.885Z,78.06
2022-09-14T23:09:27.959Z,78.00
2022-09-14T23:10:28.037Z,78.06
2022-09-14T23:11:28.125Z,78.30
2022-09-14T23:12:28.220Z,78.00
2022-09-14T23:13:28.293Z,77.90
2022-09-14T23:14:28.400Z,78.00
2022-09-14T23:15:28.468Z,77.80
2022-09-14T23:16:28.602Z,77.80
2022-09-14T23:17:28.645Z,77.80
2022-09-14T23:18:28.716Z,77.80
2022-09-14T23:19:28.791Z,77.70
2022-09-14T23:20:28.866Z,77.80
2022-09-14T23:21:28.941Z,77.50
2022-09-14T23:22:29.029Z,77.59
2022-09-14T23:23:29.123Z,77.59
2022-09-14T23:24:29.232Z,77.80
2022-09-14T23:25:29.281Z,77.83
2022-09-14T23:26:29.371Z,77.83
2022-09-14T23:27:29.514Z,77.83
2022-09-14T23:28:29.550Z,77.83
2022-09-14T23:29:29.632Z,77.94
2022-09-14T23:30:29.766Z,78.14
2022-09-14T23:31:29.773Z,78.14
2022-09-14T23:32:29.878Z,78.14
2022-09-14T23:33:29.918Z,78.23
2022-09-14T23:34:30.009Z,78.23
2022-09-14T23:35:30.075Z,78.23
2022-09-14T23:36:30.156Z,78.03
2022-09-14T23:37:30.246Z,76.63
2022-09-14T23:38:30.308Z,76.73
2022-09-14T23:39:30.380Z,76.83
2022-09-14T23:40:30.536Z,76.83
2022-09-14T23:41:30.521Z,76.53
2022-09-14T23:42:30.643Z,76.73
2022-09-14T23:43:30.675Z,76.63
2022-09-14T23:44:30.768Z,76.83
2022-09-14T23:45:30.853Z,76.83
2022-09-14T23:46:30.985Z,76.73
2022-09-14T23:47:31.022Z,76.63
2022-09-14T23:48:31.097Z,76.63
2022-09-14T23:49:31.204Z,76.32
2022-09-14T23:50:31.241Z,76.12
2022-09-14T23:51:31.341Z,76.32
2022-09-14T23:52:31.443Z,76.43
2022-09-14T23:53:31.486Z,76.32
2022-09-14T23:54:31.559Z,76.12
2022-09-14T23:55:31.638Z,76.23
2022-09-14T23:56:31.732Z,76.03
2022-09-14T23:57:31.832Z,76.03
2022-09-14T23:58:31.874Z,76.12
2022-09-14T23:59:31.943Z,76.23
